Belmont, Louisiana
Current Conditions -  °F | °C
As of 7:55 AM on Monday 24 Nov 2014 (Local Time) from KIER Reporting Station
Clear Clear  
Wind Chill: 50°   Ceiling: Unl
Heat Index: 50°   Visibility: 10mi
Dew Point: 43°   Wind: 9mph
Humidity: 76%   Direction: 320°NW
Pressure: 29.94"   Gusts: NA
Location:  31.72°N, 93.51°W
Report Text: KIER 241355Z AUTO 32008KT 10SM CLR 10/06 A2994 RMK AO2 T01020062
Loading
Personal Weather Stations






























Interactive Weather Map New forecast layout! Learn more

10-Day Weather Forecast

Advertisements
Track Severe Weather on mobile